Satellite Precipitation Estimates (TXUS20 KWBC)
Issued by NWS

Home | Current Version | Previous Version | Text Only | Print | Product List | Glossary On
Versions: 1 2 3 4
000
SPTD31 TTPP 221745 RRA
SPECI
TTCP 221740Z 11017KT 8000 SHRA FEW012CB BKN015 27/24 Q1013?NOSIG
RMK?CB-ESE=



USA.gov is the U.S. government's official web portal to all federal, state and local government web resources and services.